Time;durP1;ratioP1;P1;durP2;ratioP2;P2;SDS_P1;SDS_P2;PMS_P1;PMS_P2;Temp;Humidity;BMP_temperature;BMP_pressure;BME280_temperature;BME280_humidity;BME280_pressure;Samples;Min_cycle;Max_cycle;Signal;HPM_P1;HPM_P2
2021/11/27 00:01:23;;;;;;;3.67;1.37;;;5.30;99.90;;;;;;5006361;28;20196;-80
2021/11/27 00:03:53;;;;;;;3.13;1.10;;;5.30;99.90;;;;;;5007937;28;20191;-84
2021/11/27 00:06:21;;;;;;;3.20;1.10;;;5.30;99.90;;;;;;5005158;28;20207;-82
2021/11/27 00:08:49;;;;;;;4.17;1.30;;;5.20;99.90;;;;;;4987547;28;20196;-81
2021/11/27 00:11:17;;;;;;;5.07;1.30;;;5.20;99.90;;;;;;4986489;28;20215;-80
2021/11/27 00:13:44;;;;;;;6.00;1.60;;;5.30;99.90;;;;;;4977403;28;20212;-80
2021/11/27 00:16:11;;;;;;;5.00;1.37;;;5.30;99.90;;;;;;4967827;28;20526;-79
2021/11/27 00:18:37;;;;;;;5.27;2.47;;;5.20;99.90;;;;;;4968209;28;20211;-83
2021/11/27 00:21:07;;;;;;;5.23;1.67;;;5.20;99.90;;;;;;4968387;28;20205;-83
2021/11/27 00:23:36;;;;;;;7.57;1.40;;;5.20;99.90;;;;;;4968367;28;20916;-81
2021/11/27 00:26:05;;;;;;;4.07;1.50;;;5.20;99.90;;;;;;4968397;28;20197;-85
2021/11/27 00:28:32;;;;;;;3.63;1.20;;;5.20;99.90;;;;;;4968050;28;20209;-83
2021/11/27 00:31:02;;;;;;;4.20;1.13;;;5.20;99.90;;;;;;4985158;28;20215;-85
2021/11/27 00:33:29;;;;;;;5.67;1.73;;;5.10;99.90;;;;;;4987709;28;20204;-84
2021/11/27 00:35:56;;;;;;;4.13;1.00;;;5.10;99.90;;;;;;4986725;28;20745;-79
2021/11/27 00:38:23;;;;;;;4.50;1.57;;;5.10;99.90;;;;;;4993524;28;20192;-80
2021/11/27 00:40:51;;;;;;;3.87;1.30;;;5.10;99.90;;;;;;4992469;28;20203;-80
2021/11/27 00:43:19;;;;;;;4.40;1.57;;;5.00;99.90;;;;;;4999005;28;20208;-80
2021/11/27 00:45:48;;;;;;;6.77;2.00;;;5.10;99.90;;;;;;5011260;28;20504;-81
2021/11/27 00:48:17;;;;;;;4.93;1.50;;;5.00;99.90;;;;;;5011148;28;20210;-85
2021/11/27 00:50:47;;;;;;;3.37;1.50;;;5.00;99.90;;;;;;5010524;28;20203;-82
2021/11/27 00:53:15;;;;;;;4.17;1.50;;;5.00;99.90;;;;;;4993521;28;20619;-84
2021/11/27 00:55:42;;;;;;;2.57;1.07;;;5.10;99.90;;;;;;4990277;28;20262;-82
2021/11/27 00:58:10;;;;;;;4.13;1.30;;;5.10;99.90;;;;;;4991763;28;20212;-83
2021/11/27 01:00:41;;;;;;;3.93;1.30;;;5.00;99.90;;;;;;4992552;28;20539;-83
2021/11/27 01:03:10;;;;;;;2.97;1.40;;;5.10;99.90;;;;;;4992178;28;20204;-84
2021/11/27 01:05:38;;;;;;;2.90;1.10;;;5.10;99.90;;;;;;4990314;28;20600;-82
2021/11/27 01:08:06;;;;;;;3.23;1.20;;;5.10;99.90;;;;;;5001938;28;20215;-80
2021/11/27 01:10:39;;;;;;;4.20;1.60;;;5.10;99.90;;;;;;4998354;28;20204;-83
2021/11/27 01:13:06;;;;;;;4.27;1.80;;;5.10;99.90;;;;;;4971441;28;20216;-81
2021/11/27 01:15:35;;;;;;;3.50;1.67;;;5.10;99.90;;;;;;4971437;28;20323;-79
2021/11/27 01:18:04;;;;;;;10.00;2.43;;;5.10;99.90;;;;;;4983309;28;20877;-82
2021/11/27 01:20:37;;;;;;;10.10;2.53;;;5.20;99.90;;;;;;5010120;28;20207;-87
2021/11/27 01:23:04;;;;;;;9.67;2.43;;;5.20;99.90;;;;;;4982259;28;20213;-83
2021/11/27 01:25:31;;;;;;;9.20;2.43;;;5.20;99.90;;;;;;4975968;28;20204;-84
2021/11/27 01:27:58;;;;;;;10.97;2.60;;;5.20;99.90;;;;;;4991618;28;20291;-81
2021/11/27 01:30:25;;;;;;;8.50;2.40;;;5.20;99.90;;;;;;4991470;28;20208;-86
2021/11/27 01:32:53;;;;;;;9.57;2.10;;;5.20;99.90;;;;;;5007945;28;20226;-82
2021/11/27 01:35:21;;;;;;;10.73;2.67;;;5.20;99.90;;;;;;5010134;28;20538;-81
2021/11/27 01:37:48;;;;;;;8.07;2.10;;;5.20;99.90;;;;;;4978311;28;20233;-88
2021/11/27 01:40:21;;;;;;;12.27;3.33;;;5.20;99.90;;;;;;4976917;28;20197;-90
2021/11/27 01:42:48;;;;;;;10.27;2.60;;;5.20;99.90;;;;;;5010664;28;20211;-86
2021/11/27 01:45:18;;;;;;;13.77;3.93;;;5.20;99.90;;;;;;5010730;28;20206;-85
2021/11/27 01:47:48;;;;;;;6.77;2.00;;;5.20;99.90;;;;;;5011287;28;20213;-89
2021/11/27 01:50:15;;;;;;;7.87;2.47;;;5.20;99.90;;;;;;4992871;28;20207;-85
2021/11/27 01:52:44;;;;;;;3.70;1.30;;;5.10;99.90;;;;;;4992124;28;20291;-84
2021/11/27 01:55:12;;;;;;;7.40;1.60;;;5.10;99.90;;;;;;4991341;28;20231;-85
2021/11/27 01:57:41;;;;;;;4.13;1.17;;;5.10;99.90;;;;;;4989887;28;20203;-85
2021/11/27 02:00:11;;;;;;;2.77;1.20;;;5.10;99.90;;;;;;4989412;28;20232;-87
2021/11/27 02:02:38;;;;;;;4.67;1.13;;;5.10;99.90;;;;;;5004426;28;20595;-80
2021/11/27 02:05:06;;;;;;;2.83;0.80;;;5.10;99.90;;;;;;5011843;28;20206;-81
2021/11/27 02:07:33;;;;;;;1.73;0.90;;;5.10;99.90;;;;;;5002290;28;20593;-85
2021/11/27 02:10:01;;;;;;;2.67;0.90;;;5.10;99.90;;;;;;4991652;28;20191;-87
2021/11/27 02:12:28;;;;;;;3.57;1.20;;;5.10;99.90;;;;;;4993350;28;20208;-83
2021/11/27 02:14:55;;;;;;;3.23;0.90;;;5.10;99.90;;;;;;4990436;28;20593;-87
2021/11/27 02:17:22;;;;;;;4.70;0.90;;;5.10;99.90;;;;;;5006156;28;20242;-86
2021/11/27 02:19:49;;;;;;;2.87;1.30;;;5.10;99.90;;;;;;5009451;28;20217;-87
2021/11/27 02:22:17;;;;;;;6.40;1.90;;;5.10;99.90;;;;;;5009365;28;20202;-84
2021/11/27 02:24:45;;;;;;;3.43;1.20;;;5.10;99.90;;;;;;5009528;28;20351;-84
2021/11/27 02:27:12;;;;;;;4.70;2.43;;;5.10;99.90;;;;;;4990426;28;20364;-87
2021/11/27 02:29:39;;;;;;;6.07;2.10;;;5.10;99.90;;;;;;4989845;28;20223;-87
2021/11/27 02:32:08;;;;;;;3.10;1.60;;;5.00;99.90;;;;;;4973178;28;20217;-81
2021/11/27 02:34:34;;;;;;;3.83;1.57;;;5.10;99.90;;;;;;4983094;28;20215;-83
2021/11/27 02:37:05;;;;;;;4.70;1.50;;;5.10;99.90;;;;;;4995909;28;20227;-89
2021/11/27 02:39:34;;;;;;;3.23;1.60;;;5.10;99.90;;;;;;5000827;28;20200;-82
2021/11/27 02:42:02;;;;;;;3.10;1.80;;;5.00;99.90;;;;;;4991723;28;20207;-81
2021/11/27 02:44:32;;;;;;;2.67;1.10;;;5.00;99.90;;;;;;4990194;28;20215;-83
2021/11/27 02:47:00;;;;;;;4.40;1.43;;;5.00;99.90;;;;;;4990701;28;20203;-86
2021/11/27 02:49:27;;;;;;;3.47;0.97;;;5.00;99.90;;;;;;4990991;28;20204;-85
2021/11/27 02:51:55;;;;;;;6.70;1.70;;;5.00;99.90;;;;;;4991188;28;20221;-82
2021/11/27 02:54:22;;;;;;;7.77;1.33;;;5.00;99.90;;;;;;4990392;28;20290;-87
2021/11/27 02:56:51;;;;;;;4.17;1.13;;;5.10;99.90;;;;;;4991146;28;20224;-85
2021/11/27 02:59:20;;;;;;;7.80;1.80;;;5.00;99.90;;;;;;4983987;28;20251;-88
2021/11/27 03:01:50;;;;;;;4.13;1.50;;;5.00;99.90;;;;;;4971021;28;20227;-83
2021/11/27 03:04:17;;;;;;;10.80;2.17;;;5.00;99.90;;;;;;4987816;28;20218;-87
2021/11/27 03:06:45;;;;;;;9.40;1.97;;;5.00;99.90;;;;;;5010639;28;20198;-87
2021/11/27 03:09:16;;;;;;;12.27;1.83;;;5.10;99.90;;;;;;5010709;28;20202;-85
2021/11/27 03:11:43;;;;;;;8.00;1.80;;;5.10;99.90;;;;;;4976315;28;20209;-85
2021/11/27 03:14:11;;;;;;;6.67;2.87;;;5.10;99.90;;;;;;4972081;28;20567;-82
2021/11/27 03:16:39;;;;;;;4.67;1.20;;;5.10;99.90;;;;;;4970338;28;20236;-87
2021/11/27 03:19:06;;;;;;;7.60;1.27;;;5.10;99.90;;;;;;4972406;28;20216;-87
2021/11/27 03:21:33;;;;;;;7.20;1.27;;;5.10;99.90;;;;;;4971486;28;20205;-83
2021/11/27 03:24:00;;;;;;;5.43;1.90;;;5.00;99.90;;;;;;4971049;28;20636;-87
2021/11/27 03:26:27;;;;;;;4.77;1.67;;;5.00;99.90;;;;;;5000568;28;20765;-88
2021/11/27 03:28:54;;;;;;;7.90;1.30;;;5.10;99.90;;;;;;5011124;28;20215;-88
2021/11/27 03:31:23;;;;;;;6.37;1.77;;;5.00;99.90;;;;;;4995536;28;20224;-82
2021/11/27 03:33:50;;;;;;;6.83;1.33;;;5.00;99.90;;;;;;4970708;28;20289;-87
2021/11/27 03:36:18;;;;;;;3.20;1.20;;;5.00;99.90;;;;;;4971225;28;20224;-89
2021/11/27 03:38:45;;;;;;;6.73;2.10;;;5.00;99.90;;;;;;4970912;28;20208;-86
2021/11/27 03:41:13;;;;;;;3.80;1.30;;;5.00;99.90;;;;;;4986050;28;20223;-88
2021/11/27 03:43:42;;;;;;;5.37;1.10;;;5.00;99.90;;;;;;4994030;28;20207;-86
2021/11/27 03:46:09;;;;;;;2.80;1.03;;;5.00;99.90;;;;;;4990399;28;20214;-84
2021/11/27 03:48:40;;;;;;;4.40;1.30;;;5.00;99.90;;;;;;4971132;28;20204;-87
2021/11/27 03:51:10;;;;;;;3.37;1.10;;;5.00;99.90;;;;;;4970232;28;20196;-84
2021/11/27 03:53:39;;;;;;;5.90;1.30;;;5.00;99.90;;;;;;4970452;28;20220;-87
2021/11/27 03:56:09;;;;;;;2.33;1.30;;;5.00;99.90;;;;;;4983791;28;20226;-85
2021/11/27 03:58:36;;;;;;;4.07;1.97;;;5.00;99.90;;;;;;5009469;28;20200;-86
2021/11/27 04:01:06;;;;;;;3.43;1.20;;;5.00;99.90;;;;;;5010324;28;20207;-86
2021/11/27 04:03:34;;;;;;;1.90;0.80;;;5.00;99.90;;;;;;5008980;28;20213;-81
2021/11/27 04:06:03;;;;;;;2.93;1.10;;;5.00;99.90;;;;;;5015197;28;20207;-84
2021/11/27 04:08:30;;;;;;;2.90;1.37;;;5.00;99.90;;;;;;5012998;28;20210;-83
2021/11/27 04:10:57;;;;;;;2.60;1.23;;;5.00;99.90;;;;;;5010014;28;20204;-86
2021/11/27 04:13:24;;;;;;;3.63;1.40;;;5.00;99.90;;;;;;5002930;28;20223;-87
2021/11/27 04:15:52;;;;;;;3.70;1.17;;;5.00;99.90;;;;;;4993177;28;20246;-87
2021/11/27 04:18:19;;;;;;;3.37;1.17;;;5.00;99.90;;;;;;5012574;28;20199;-83
2021/11/27 04:20:46;;;;;;;5.87;1.40;;;5.00;99.90;;;;;;5003895;28;20211;-85
2021/11/27 04:23:16;;;;;;;3.90;1.13;;;5.00;99.90;;;;;;4992900;28;20644;-80
2021/11/27 04:25:43;;;;;;;1.80;1.03;;;5.00;99.90;;;;;;4993863;28;20211;-87
2021/11/27 04:28:11;;;;;;;2.27;1.13;;;5.00;99.90;;;;;;5009771;28;20219;-84
2021/11/27 04:30:38;;;;;;;3.57;1.23;;;5.00;99.90;;;;;;5011749;28;20199;-85
2021/11/27 04:33:06;;;;;;;2.80;1.10;;;5.00;99.90;;;;;;5012595;28;20202;-81
2021/11/27 04:35:34;;;;;;;2.43;1.10;;;5.00;99.90;;;;;;4997499;28;20207;-82
2021/11/27 04:38:01;;;;;;;5.43;1.43;;;5.00;99.90;;;;;;4993124;28;20192;-89
2021/11/27 04:40:31;;;;;;;2.17;1.00;;;5.00;99.90;;;;;;4990782;28;20208;-84
2021/11/27 04:42:58;;;;;;;2.53;1.10;;;5.00;99.90;;;;;;4990166;28;20212;-88
2021/11/27 04:45:26;;;;;;;4.07;1.30;;;5.00;99.90;;;;;;4989101;28;20208;-85
2021/11/27 04:47:52;;;;;;;2.53;1.00;;;5.00;99.90;;;;;;4992716;28;20211;-86
2021/11/27 04:50:20;;;;;;;4.27;1.33;;;5.10;99.90;;;;;;4984846;28;20207;-89
2021/11/27 04:52:47;;;;;;;3.53;1.70;;;5.00;99.90;;;;;;4975308;28;20208;-85
2021/11/27 04:55:17;;;;;;;5.37;1.80;;;5.00;99.90;;;;;;4974246;28;20201;-88
2021/11/27 04:57:45;;;;;;;7.87;2.13;;;5.10;99.90;;;;;;4985813;28;20294;-90
2021/11/27 05:00:17;;;;;;;5.70;1.63;;;5.10;99.90;;;;;;4992618;28;20235;-88
2021/11/27 05:02:43;;;;;;;4.23;1.60;;;5.10;99.90;;;;;;4991914;28;20204;-89
2021/11/27 05:05:10;;;;;;;5.07;1.20;;;5.10;99.90;;;;;;4992906;28;20217;-90
2021/11/27 05:07:37;;;;;;;5.07;1.30;;;5.10;99.90;;;;;;4995704;28;20208;-89
2021/11/27 05:10:05;;;;;;;3.77;1.10;;;5.10;99.90;;;;;;4999853;28;20192;-89
2021/11/27 05:12:32;;;;;;;2.63;0.90;;;5.10;99.90;;;;;;4989596;28;20241;-88
2021/11/27 05:15:00;;;;;;;3.13;1.03;;;5.10;99.90;;;;;;4982071;28;20209;-88
2021/11/27 05:17:27;;;;;;;3.17;1.17;;;5.10;99.90;;;;;;4979260;28;20251;-88
2021/11/27 05:19:53;;;;;;;2.00;1.53;;;5.10;99.90;;;;;;4994656;28;20211;-88
2021/11/27 05:22:20;;;;;;;3.23;1.00;;;5.10;99.90;;;;;;4993645;28;20211;-90
2021/11/27 05:24:47;;;;;;;3.23;1.10;;;5.00;99.90;;;;;;4993916;28;20280;-88
2021/11/27 05:27:15;;;;;;;4.70;1.60;;;5.00;99.90;;;;;;4995700;28;20211;-91
2021/11/27 05:29:43;;;;;;;3.63;1.87;;;5.10;99.90;;;;;;4994852;28;20205;-89
2021/11/27 05:32:21;;;;;;;3.93;1.20;;;5.10;99.90;;;;;;5003583;28;20229;-87
2021/11/27 05:34:49;;;;;;;3.97;1.07;;;5.10;99.90;;;;;;5025004;28;20233;-89
2021/11/27 05:37:16;;;;;;;4.63;1.43;;;5.00;99.90;;;;;;5022500;28;20730;-88
2021/11/27 05:39:44;;;;;;;1.90;0.90;;;5.00;99.90;;;;;;5012711;28;20211;-91
2021/11/27 05:42:12;;;;;;;2.90;0.90;;;5.00;99.90;;;;;;5012679;28;20235;-89
2021/11/27 05:44:40;;;;;;;2.23;0.90;;;5.00;99.90;;;;;;5012295;28;20213;-89
2021/11/27 05:47:07;;;;;;;1.90;0.90;;;5.00;99.90;;;;;;5013459;28;20199;-90
2021/11/27 05:49:36;;;;;;;0.70;0.60;;;5.00;99.90;;;;;;5011668;28;20212;-91
2021/11/27 05:52:03;;;;;;;5.97;1.30;;;5.00;99.90;;;;;;5011949;28;20226;-86
2021/11/27 05:54:30;;;;;;;2.50;0.70;;;5.00;99.90;;;;;;5005575;28;20211;-90
2021/11/27 05:56:57;;;;;;;3.40;0.80;;;5.00;99.90;;;;;;4992177;28;21013;-88
2021/11/27 05:59:24;;;;;;;2.20;0.80;;;5.00;99.90;;;;;;4991492;28;20637;-85
2021/11/27 06:01:52;;;;;;;6.13;1.23;;;5.00;99.90;;;;;;5008677;28;20211;-89
2021/11/27 06:04:19;;;;;;;3.40;1.30;;;5.00;99.90;;;;;;5010344;28;20234;-87
2021/11/27 06:06:47;;;;;;;1.30;1.07;;;5.00;99.90;;;;;;5012962;28;20199;-84
2021/11/27 06:09:14;;;;;;;1.40;1.03;;;5.00;99.90;;;;;;5011934;28;20199;-89
2021/11/27 06:11:41;;;;;;;2.40;1.20;;;5.00;99.90;;;;;;5011523;28;20215;-88
2021/11/27 06:14:07;;;;;;;1.43;1.00;;;5.00;99.90;;;;;;5012461;28;20206;-90
2021/11/27 06:16:34;;;;;;;4.40;1.20;;;5.00;99.90;;;;;;5003301;28;20246;-82
2021/11/27 06:19:01;;;;;;;1.73;0.77;;;5.00;99.90;;;;;;4992133;28;20196;-85
2021/11/27 06:21:28;;;;;;;1.40;1.10;;;5.00;99.90;;;;;;4992714;28;20192;-89
2021/11/27 06:23:57;;;;;;;2.70;1.40;;;4.90;99.90;;;;;;4991477;28;20204;-90
2021/11/27 06:26:24;;;;;;;2.30;0.90;;;4.90;99.90;;;;;;4991171;28;20207;-84
2021/11/27 06:28:52;;;;;;;4.50;1.10;;;4.90;99.90;;;;;;4992606;28;20211;-91
2021/11/27 06:31:19;;;;;;;1.80;1.27;;;4.90;99.90;;;;;;4993247;28;20211;-91
2021/11/27 06:33:45;;;;;;;1.67;1.13;;;4.90;99.90;;;;;;4991990;28;20208;-89
2021/11/27 06:36:12;;;;;;;1.80;0.87;;;4.90;99.90;;;;;;4991911;28;20207;-83
2021/11/27 06:38:39;;;;;;;4.07;1.00;;;4.90;99.90;;;;;;4980424;28;20240;-90
2021/11/27 06:41:07;;;;;;;2.30;1.27;;;4.90;99.90;;;;;;4972323;28;20204;-85
2021/11/27 06:43:34;;;;;;;2.80;1.10;;;4.80;99.90;;;;;;4987850;28;20204;-89
2021/11/27 06:46:01;;;;;;;1.93;0.90;;;4.80;99.90;;;;;;4990419;28;20222;-79
2021/11/27 06:48:28;;;;;;;1.73;0.80;;;4.80;99.90;;;;;;4989310;28;20227;-81
2021/11/27 06:50:55;;;;;;;1.60;0.90;;;4.80;99.90;;;;;;4987832;28;20203;-84
2021/11/27 06:53:22;;;;;;;3.77;1.30;;;4.80;99.90;;;;;;4989205;28;20208;-81
2021/11/27 06:55:49;;;;;;;1.27;0.90;;;4.80;99.90;;;;;;4987551;28;20204;-82
2021/11/27 06:58:17;;;;;;;5.13;1.30;;;4.80;99.90;;;;;;4987670;28;20235;-83
2021/11/27 07:00:44;;;;;;;2.83;1.13;;;4.80;99.90;;;;;;4987289;28;20235;-80
2021/11/27 07:03:11;;;;;;;2.27;1.13;;;4.80;99.90;;;;;;4990541;28;20795;-81
2021/11/27 07:05:38;;;;;;;3.10;1.27;;;4.80;99.90;;;;;;4991204;28;20212;-89
2021/11/27 07:08:05;;;;;;;3.53;1.20;;;4.80;99.90;;;;;;4990081;28;20196;-81
2021/11/27 07:10:32;;;;;;;1.20;1.03;;;4.80;99.90;;;;;;4988213;28;20207;-85
2021/11/27 07:13:00;;;;;;;4.47;1.60;;;4.80;99.90;;;;;;4989587;28;20208;-88
2021/11/27 07:15:29;;;;;;;2.00;0.97;;;4.80;99.90;;;;;;4987751;28;20219;-87
2021/11/27 07:17:56;;;;;;;1.43;0.80;;;4.80;99.90;;;;;;4988853;28;20318;-81
2021/11/27 07:20:23;;;;;;;1.73;1.00;;;4.80;99.90;;;;;;4993642;28;20906;-82
2021/11/27 07:22:49;;;;;;;3.00;1.27;;;4.80;99.90;;;;;;5006843;28;20618;-80
2021/11/27 07:25:16;;;;;;;4.40;1.50;;;4.80;99.90;;;;;;5005881;28;20207;-82
2021/11/27 07:27:43;;;;;;;6.93;1.40;;;4.80;99.90;;;;;;4989377;28;20200;-83
2021/11/27 07:30:11;;;;;;;3.10;1.10;;;4.80;99.90;;;;;;4989066;28;20196;-86
2021/11/27 07:32:39;;;;;;;3.13;1.60;;;4.80;99.90;;;;;;4988718;28;20819;-86
2021/11/27 07:35:07;;;;;;;3.90;1.57;;;4.80;99.90;;;;;;4988872;28;20208;-88
2021/11/27 07:37:34;;;;;;;4.17;1.90;;;4.80;99.90;;;;;;5002594;28;20733;-81
2021/11/27 07:40:01;;;;;;;6.97;2.10;;;4.80;99.90;;;;;;5011257;28;20540;-89
2021/11/27 07:42:28;;;;;;;3.30;1.43;;;4.90;99.90;;;;;;5010101;28;20646;-86
2021/11/27 07:44:54;;;;;;;3.07;1.10;;;4.90;99.90;;;;;;4989923;28;20216;-85
2021/11/27 07:47:21;;;;;;;2.20;1.30;;;4.80;99.90;;;;;;4973094;28;20687;-85
2021/11/27 07:49:49;;;;;;;1.70;1.10;;;4.90;99.90;;;;;;4983158;28;20216;-90
2021/11/27 07:52:21;;;;;;;2.90;1.73;;;4.90;99.90;;;;;;4993410;28;20199;-88
2021/11/27 07:54:48;;;;;;;9.33;2.13;;;4.90;99.90;;;;;;4974800;28;20216;-85
2021/11/27 07:57:15;;;;;;;9.27;2.27;;;4.90;99.90;;;;;;4987354;28;20231;-80
2021/11/27 07:59:42;;;;;;;7.20;1.83;;;4.90;99.90;;;;;;4992810;28;20407;-81
2021/11/27 08:02:08;;;;;;;5.27;1.33;;;4.90;99.90;;;;;;4994680;28;20200;-87
2021/11/27 08:04:35;;;;;;;1.90;0.90;;;4.90;99.90;;;;;;4993497;28;20215;-90
2021/11/27 08:07:03;;;;;;;2.13;0.87;;;4.80;99.90;;;;;;4996083;28;20600;-85
2021/11/27 08:09:30;;;;;;;3.63;1.27;;;4.80;99.90;;;;;;5012867;28;20589;-89
2021/11/27 08:11:57;;;;;;;2.00;0.90;;;4.80;99.90;;;;;;5012301;28;20207;-84
2021/11/27 08:14:31;;;;;;;1.10;0.90;;;4.80;99.90;;;;;;4959748;28;20579;-90
2021/11/27 08:16:58;;;;;;;2.33;0.93;;;4.80;99.90;;;;;;4973498;28;20287;-83
2021/11/27 08:19:25;;;;;;;4.03;2.10;;;4.90;99.90;;;;;;4989340;28;20216;-81
2021/11/27 08:21:51;;;;;;;5.80;3.00;;;4.80;99.90;;;;;;4992891;28;20196;-80
2021/11/27 08:24:20;;;;;;;7.27;3.20;;;4.90;99.90;;;;;;4992599;28;20207;-81
2021/11/27 08:26:46;;;;;;;4.63;2.80;;;4.90;99.90;;;;;;4991829;28;20208;-83
2021/11/27 08:29:19;;;;;;;4.43;2.40;;;4.90;99.90;;;;;;4949708;28;20408;-79
2021/11/27 08:31:47;;;;;;;3.43;1.83;;;5.00;99.90;;;;;;5000189;28;20200;-83
2021/11/27 08:34:14;;;;;;;1.23;1.13;;;5.00;99.90;;;;;;4993885;28;20251;-86
2021/11/27 08:36:41;;;;;;;2.20;1.00;;;5.00;99.90;;;;;;4993360;28;20216;-82
2021/11/27 08:39:08;;;;;;;2.07;0.60;;;5.00;99.90;;;;;;4993402;28;20235;-83
2021/11/27 08:41:37;;;;;;;2.33;0.83;;;5.00;99.90;;;;;;4992763;28;20294;-87
2021/11/27 08:44:05;;;;;;;1.43;1.00;;;5.00;99.90;;;;;;4994011;28;20223;-81
2021/11/27 08:46:31;;;;;;;4.40;1.77;;;5.00;99.90;;;;;;4993369;28;20208;-83
2021/11/27 08:48:59;;;;;;;5.23;1.40;;;5.00;99.90;;;;;;4993655;28;20207;-84
2021/11/27 08:51:26;;;;;;;1.33;1.20;;;5.00;99.90;;;;;;4991336;28;20208;-86
2021/11/27 08:53:53;;;;;;;5.33;1.30;;;5.10;99.90;;;;;;4990179;28;20218;-86
2021/11/27 08:56:20;;;;;;;3.20;1.23;;;5.10;99.90;;;;;;4990906;28;20200;-82
2021/11/27 08:58:48;;;;;;;1.27;0.93;;;5.10;99.90;;;;;;4991725;28;20239;-83
2021/11/27 09:01:15;;;;;;;2.27;1.00;;;5.10;99.90;;;;;;4976065;28;20541;-85
2021/11/27 09:03:43;;;;;;;4.30;1.03;;;5.10;99.90;;;;;;4972812;28;20220;-85
2021/11/27 09:06:11;;;;;;;4.90;1.20;;;5.10;99.90;;;;;;4972559;28;20204;-84
2021/11/27 09:08:41;;;;;;;3.67;1.50;;;5.10;99.90;;;;;;4970216;28;20212;-85
2021/11/27 09:11:10;;;;;;;3.53;1.73;;;5.20;99.90;;;;;;4969574;28;20215;-83
2021/11/27 09:13:37;;;;;;;3.17;1.40;;;5.20;99.90;;;;;;4970175;28;20597;-83
2021/11/27 09:16:06;;;;;;;3.20;1.40;;;5.30;99.90;;;;;;4972058;28;20315;-84
2021/11/27 09:18:33;;;;;;;3.80;1.40;;;5.30;99.90;;;;;;4987838;28;20501;-80
2021/11/27 09:21:01;;;;;;;3.70;1.20;;;5.30;99.90;;;;;;4990317;28;20199;-80
2021/11/27 09:23:28;;;;;;;4.23;1.77;;;5.30;99.90;;;;;;4997182;28;20203;-78
2021/11/27 09:25:55;;;;;;;5.67;2.90;;;5.40;99.90;;;;;;4987907;28;20205;-83
2021/11/27 09:28:22;;;;;;;6.87;2.77;;;5.40;99.90;;;;;;4971647;28;20200;-80
2021/11/27 09:30:50;;;;;;;5.20;2.63;;;5.50;99.90;;;;;;4971127;28;20215;-82
2021/11/27 09:33:19;;;;;;;2.47;1.43;;;5.50;99.90;;;;;;4987216;28;20289;-78
2021/11/27 09:35:56;;;;;;;3.47;1.50;;;5.50;99.90;;;;;;4990068;28;20212;-81
2021/11/27 09:38:23;;;;;;;5.77;1.30;;;5.50;99.90;;;;;;4989689;28;20289;-83
2021/11/27 09:40:54;;;;;;;3.47;1.40;;;5.50;99.90;;;;;;5010245;28;20233;-83
2021/11/27 09:43:22;;;;;;;1.43;1.00;;;5.50;99.90;;;;;;5009415;28;20215;-83
2021/11/27 09:45:52;;;;;;;4.20;2.40;;;5.50;99.90;;;;;;5009312;28;20211;-84
2021/11/27 09:48:21;;;;;;;6.13;2.20;;;5.50;99.90;;;;;;4994646;28;20239;-80
2021/11/27 09:50:48;;;;;;;5.10;2.40;;;5.60;99.90;;;;;;4989679;28;20207;-82
2021/11/27 09:53:15;;;;;;;4.10;1.97;;;5.50;99.90;;;;;;4989783;28;20211;-82
2021/11/27 09:55:42;;;;;;;6.60;2.27;;;5.60;99.90;;;;;;4982781;28;20227;-80
2021/11/27 09:58:09;;;;;;;4.87;2.00;;;5.60;99.90;;;;;;4969035;28;20236;-82
2021/11/27 10:00:36;;;;;;;4.80;1.23;;;5.60;99.90;;;;;;4970396;28;20228;-84
2021/11/27 10:03:05;;;;;;;2.87;1.40;;;5.60;99.90;;;;;;4971869;28;20216;-88
2021/11/27 10:05:33;;;;;;;1.87;0.90;;;5.60;99.90;;;;;;4969582;28;20209;-83
2021/11/27 10:08:00;;;;;;;5.53;0.87;;;5.60;99.90;;;;;;4991833;22;20615;-83
2021/11/27 10:10:27;;;;;;;1.83;0.90;;;5.60;99.90;;;;;;5029590;28;20205;-83
2021/11/27 10:12:55;;;;;;;2.20;1.13;;;5.50;99.90;;;;;;5028817;28;20565;-83
2021/11/27 10:15:21;;;;;;;3.50;1.60;;;5.60;99.90;;;;;;5027342;28;20206;-85
2021/11/27 10:17:48;;;;;;;7.60;1.97;;;5.50;99.90;;;;;;5028423;28;20218;-85
2021/11/27 10:20:18;;;;;;;4.50;1.40;;;5.60;99.90;;;;;;5027877;28;20233;-82
2021/11/27 10:22:48;;;;;;;2.90;1.10;;;5.50;99.90;;;;;;5028298;28;20263;-86
2021/11/27 10:25:34;;;;;;;4.83;1.67;;;5.60;99.90;;;;;;5026856;28;20210;-83
2021/11/27 10:28:07;;;;;;;3.30;1.40;;;5.50;99.90;;;;;;5029076;28;20190;-81
2021/11/27 10:30:42;;;;;;;5.47;2.63;;;5.50;99.90;;;;;;5026867;28;20221;-81
2021/11/27 10:33:09;;;;;;;7.77;1.70;;;5.50;99.90;;;;;;5026863;28;20205;-84
2021/11/27 10:35:36;;;;;;;1.50;1.20;;;5.50;99.90;;;;;;5028769;28;20221;-81
2021/11/27 10:38:07;;;;;;;8.20;1.77;;;5.60;99.90;;;;;;5027985;28;20226;-81
2021/11/27 10:40:35;;;;;;;4.43;1.40;;;5.50;99.90;;;;;;5027423;28;20214;-83
2021/11/27 10:43:06;;;;;;;4.90;1.50;;;5.40;99.90;;;;;;5028725;28;20198;-80
2021/11/27 10:45:34;;;;;;;8.10;1.77;;;5.40;99.90;;;;;;5028384;28;20194;-80
2021/11/27 10:48:09;;;;;;;4.00;1.27;;;5.30;99.90;;;;;;5026984;28;20606;-82
2021/11/27 10:50:39;;;;;;;1.20;0.70;;;5.30;99.90;;;;;;5027527;28;20209;-84
2021/11/27 10:53:11;;;;;;;2.53;1.10;;;5.40;99.90;;;;;;5028012;28;20215;-85
2021/11/27 10:55:39;;;;;;;3.90;1.10;;;5.40;99.90;;;;;;5028054;28;20187;-80
2021/11/27 10:58:08;;;;;;;4.33;2.00;;;5.40;99.90;;;;;;5027341;28;20241;-88
2021/11/27 11:00:39;;;;;;;4.97;1.83;;;5.30;99.90;;;;;;5028024;28;20226;-84
2021/11/27 11:03:10;;;;;;;5.07;1.87;;;5.40;99.90;;;;;;5013652;28;20214;-84
2021/11/27 11:05:38;;;;;;;3.40;1.67;;;5.40;99.90;;;;;;5013341;28;20618;-85
2021/11/27 11:08:07;;;;;;;8.50;2.20;;;5.40;99.90;;;;;;5029823;28;20227;-88
2021/11/27 11:10:36;;;;;;;9.27;3.00;;;5.40;99.90;;;;;;5030461;28;20203;-83
2021/11/27 11:13:06;;;;;;;5.77;1.50;;;5.50;99.90;;;;;;5023259;28;20211;-82
2021/11/27 11:15:35;;;;;;;11.30;2.40;;;5.50;99.90;;;;;;5009058;28;20213;-85
2021/11/27 11:18:14;;;;;;;8.10;1.40;;;5.50;99.90;;;;;;5009595;28;20223;-85
2021/11/27 11:20:45;;;;;;;4.60;1.07;;;5.50;99.90;;;;;;5008001;28;20613;-86
2021/11/27 11:23:15;;;;;;;3.57;0.93;;;5.50;99.90;;;;;;5022446;28;20291;-82
2021/11/27 11:26:11;;;;;;;3.60;1.33;;;5.50;99.90;;;;;;5030682;28;20210;-84
2021/11/27 11:28:40;;;;;;;5.27;1.30;;;5.50;99.90;;;;;;4996455;28;20221;-83
2021/11/27 11:31:11;;;;;;;3.70;0.90;;;5.50;99.90;;;;;;5030985;28;20210;-89
2021/11/27 11:33:40;;;;;;;7.53;2.10;;;5.50;99.90;;;;;;5010233;28;20230;-88
2021/11/27 11:36:11;;;;;;;3.70;1.30;;;5.50;99.90;;;;;;5010377;28;20290;-85
2021/11/27 11:38:40;;;;;;;3.77;1.00;;;5.60;99.90;;;;;;5010713;28;20242;-91
2021/11/27 11:41:07;;;;;;;4.27;1.33;;;5.70;99.90;;;;;;5010330;28;20210;-85
2021/11/27 11:43:35;;;;;;;3.27;0.90;;;5.70;99.90;;;;;;5023217;28;20205;-89
2021/11/27 11:46:03;;;;;;;6.40;1.40;;;5.70;99.90;;;;;;5027705;28;20194;-83
2021/11/27 11:48:30;;;;;;;5.83;1.40;;;5.80;99.90;;;;;;5028391;28;20588;-86
2021/11/27 11:51:02;;;;;;;6.50;1.20;;;5.80;99.90;;;;;;5017893;28;20229;-81
2021/11/27 11:53:40;;;;;;;2.50;1.27;;;5.90;99.90;;;;;;5017693;28;20199;-84
2021/11/27 11:56:09;;;;;;;3.47;1.03;;;6.00;99.90;;;;;;5008468;28;20855;-81
2021/11/27 11:58:40;;;;;;;4.53;1.43;;;6.00;99.90;;;;;;5007969;28;20227;-84
2021/11/27 12:01:15;;;;;;;4.53;1.57;;;6.00;99.90;;;;;;5015980;28;20214;-83
2021/11/27 12:03:43;;;;;;;7.03;1.50;;;6.10;99.90;;;;;;5027793;28;20209;-84
2021/11/27 12:06:12;;;;;;;3.83;1.20;;;6.10;99.90;;;;;;5009468;28;20505;-84
2021/11/27 12:09:14;;;;;;;5.57;1.77;;;6.20;99.90;;;;;;5010025;28;20242;-85
2021/11/27 12:11:42;;;;;;;3.17;1.33;;;6.30;99.90;;;;;;5007725;28;20286;-87
2021/11/27 12:14:43;;;;;;;8.40;2.10;;;6.40;99.90;;;;;;5019752;28;20298;-84
2021/11/27 12:17:15;;;;;;;2.83;1.53;;;6.50;99.90;;;;;;5029873;28;20293;-88
2021/11/27 12:19:43;;;;;;;2.77;1.10;;;6.60;99.90;;;;;;5015389;28;20262;-88
2021/11/27 12:22:38;;;;;;;5.50;1.67;;;6.60;99.90;;;;;;5014281;28;20254;-84
2021/11/27 12:25:10;;;;;;;4.33;1.07;;;6.70;99.90;;;;;;5028915;28;20574;-82
2021/11/27 12:28:14;;;;;;;2.27;0.80;;;6.70;99.90;;;;;;5031990;28;20509;-82
2021/11/27 12:31:08;;;;;;;7.03;1.37;;;6.70;99.90;;;;;;5030360;28;20194;-84
2021/11/27 12:33:58;;;;;;;2.20;1.00;;;6.70;99.90;;;;;;5031703;28;20203;-85
2021/11/27 12:36:49;;;;;;;5.73;1.50;;;6.60;99.90;;;;;;5032082;28;20874;-84
2021/11/27 12:39:39;;;;;;;3.30;1.20;;;6.60;99.90;;;;;;5021253;28;20235;-87
2021/11/27 12:42:30;;;;;;;6.27;1.80;;;6.50;99.90;;;;;;5012182;28;20207;-85
2021/11/27 12:44:57;;;;;;;7.10;1.43;;;6.50;99.90;;;;;;5012612;28;20199;-85
2021/11/27 12:47:36;;;;;;;4.07;1.00;;;6.50;99.90;;;;;;5011631;28;20556;-83
2021/11/27 12:50:12;;;;;;;3.27;0.80;;;6.40;99.90;;;;;;5012192;28;20204;-86
2021/11/27 12:52:43;;;;;;;3.93;0.70;;;6.40;99.90;;;;;;5011613;28;20203;-82
2021/11/27 12:55:36;;;;;;;3.20;1.03;;;6.30;99.90;;;;;;5011552;28;20198;-85
2021/11/27 12:58:33;;;;;;;3.63;0.80;;;6.20;99.90;;;;;;5014941;28;20227;-87
2021/11/27 13:01:02;;;;;;;3.47;0.70;;;6.20;99.90;;;;;;5032181;28;20211;-88
2021/11/27 13:03:32;;;;;;;4.10;1.20;;;6.10;99.90;;;;;;5032100;28;20198;-85
2021/11/27 13:06:02;;;;;;;1.10;0.80;;;6.10;99.90;;;;;;5031320;28;20614;-84
2021/11/27 13:08:35;;;;;;;4.40;1.40;;;6.10;99.90;;;;;;5031145;28;20253;-84